createdAt,value
2022-11-10T00:01:09.962Z,9.53
2022-11-10T00:03:38.385Z,13.50
2022-11-10T00:06:06.074Z,12.87
2022-11-10T00:08:32.555Z,12.63
2022-11-10T00:11:01.294Z,9.93
2022-11-10T00:13:30.662Z,9.47
2022-11-10T00:16:20.556Z,14.27
2022-11-10T00:18:47.158Z,10.43
2022-11-10T00:21:15.285Z,8.10
2022-11-10T00:23:42.178Z,11.30
2022-11-10T00:26:16.652Z,12.13
2022-11-10T00:28:43.452Z,9.93
2022-11-10T00:31:10.707Z,13.43
2022-11-10T00:33:38.498Z,14.67
2022-11-10T00:36:05.308Z,13.67
2022-11-10T00:38:31.918Z,8.80
2022-11-10T00:40:59.919Z,8.63
2022-11-10T00:43:27.111Z,9.40
2022-11-10T00:45:54.375Z,9.07
2022-11-10T00:48:20.845Z,11.80
2022-11-10T00:50:47.550Z,11.90
2022-11-10T00:53:14.038Z,12.70
2022-11-10T00:55:41.223Z,9.90
2022-11-10T00:58:07.927Z,12.30
2022-11-10T01:00:34.540Z,23.50
2022-11-10T01:03:02.597Z,11.13
2022-11-10T01:05:30.267Z,11.93
2022-11-10T01:07:59.724Z,12.00
2022-11-10T01:10:26.869Z,8.83
2022-11-10T01:12:53.528Z,14.00
2022-11-10T01:15:25.971Z,10.53
2022-11-10T01:17:55.125Z,12.83
2022-11-10T01:20:21.764Z,8.00
2022-11-10T01:22:56.081Z,13.57
2022-11-10T01:25:27.259Z,11.67
2022-11-10T01:27:53.741Z,15.63
2022-11-10T01:30:22.217Z,12.20
2022-11-10T01:32:50.622Z,8.73
2022-11-10T01:35:18.330Z,9.03
2022-11-10T01:37:45.451Z,13.90
2022-11-10T01:40:12.616Z,15.93
2022-11-10T01:42:52.787Z,10.50
2022-11-10T01:45:22.606Z,8.23
2022-11-10T01:47:54.406Z,13.03
2022-11-10T01:50:22.790Z,7.20
2022-11-10T01:52:50.944Z,8.03
2022-11-10T01:55:18.244Z,11.70
2022-11-10T01:57:46.986Z,12.73
2022-11-10T02:00:25.719Z,15.43
2022-11-10T02:03:10.283Z,11.70
2022-11-10T02:05:39.022Z,5.93
2022-11-10T02:08:05.923Z,15.23
2022-11-10T02:10:32.720Z,11.67
2022-11-10T02:12:59.382Z,14.70
2022-11-10T02:15:25.879Z,17.10
2022-11-10T02:17:55.686Z,13.37
2022-11-10T02:20:28.274Z,11.40
2022-11-10T02:22:54.746Z,10.00
2022-11-10T02:25:22.856Z,5.20
2022-11-10T02:27:49.278Z,8.63
2022-11-10T02:30:16.773Z,13.00
2022-11-10T02:32:45.348Z,18.80
2022-11-10T02:35:11.870Z,11.87
2022-11-10T02:37:39.916Z,8.57
2022-11-10T02:40:10.159Z,13.13
2022-11-10T02:42:36.632Z,20.20
2022-11-10T02:45:04.536Z,9.93
2022-11-10T02:47:34.311Z,10.27
2022-11-10T02:50:00.846Z,7.87
2022-11-10T02:52:31.142Z,9.13
2022-11-10T02:54:57.695Z,13.13
2022-11-10T02:57:24.130Z,6.50
2022-11-10T02:59:50.631Z,11.10
2022-11-10T03:02:17.194Z,10.30
2022-11-10T03:04:43.680Z,12.23
2022-11-10T03:07:10.239Z,8.63
2022-11-10T03:09:37.237Z,11.53
2022-11-10T03:12:03.816Z,12.03
2022-11-10T03:14:30.355Z,11.80
2022-11-10T03:16:56.816Z,11.27
2022-11-10T03:19:23.390Z,11.43
2022-11-10T03:21:49.818Z,10.73
2022-11-10T03:24:16.378Z,13.30
2022-11-10T03:26:42.803Z,13.77
2022-11-10T03:29:09.373Z,15.80
2022-11-10T03:31:36.044Z,10.43
2022-11-10T03:34:02.566Z,11.90
2022-11-10T03:36:29.221Z,8.73
2022-11-10T03:38:57.040Z,8.67
2022-11-10T03:41:23.608Z,8.50
2022-11-10T03:43:50.205Z,13.63
2022-11-10T03:46:17.006Z,13.67
2022-11-10T03:48:47.405Z,15.33
2022-11-10T03:51:16.952Z,12.67
2022-11-10T03:53:43.419Z,12.70
2022-11-10T03:56:09.967Z,11.80
2022-11-10T03:58:36.832Z,14.87
2022-11-10T04:01:03.319Z,9.97
2022-11-10T04:03:30.116Z,9.80
2022-11-10T04:06:15.451Z,12.70
2022-11-10T04:08:59.825Z,8.87
2022-11-10T04:11:49.512Z,14.30
2022-11-10T04:14:35.411Z,12.33
2022-11-10T04:17:02.053Z,10.70
2022-11-10T04:19:28.677Z,7.30
2022-11-10T04:21:55.447Z,10.40
2022-11-10T04:24:22.158Z,8.40
2022-11-10T04:26:48.964Z,14.17
2022-11-10T04:29:19.881Z,14.13
2022-11-10T04:31:46.692Z,13.27
2022-11-10T04:34:15.242Z,11.97
2022-11-10T04:36:43.468Z,8.67
2022-11-10T04:39:10.406Z,13.87
2022-11-10T04:41:37.238Z,12.57
2022-11-10T04:44:03.898Z,14.73
2022-11-10T04:46:38.997Z,10.07
2022-11-10T04:49:06.907Z,17.33
2022-11-10T04:51:38.576Z,8.77
2022-11-10T04:54:06.652Z,11.20
2022-11-10T04:56:34.657Z,9.60
2022-11-10T04:59:01.121Z,10.43
2022-11-10T05:01:28.427Z,14.47
2022-11-10T05:03:55.759Z,35.20
2022-11-10T05:06:22.429Z,27.20
2022-11-10T05:08:49.408Z,18.47
2022-11-10T05:11:16.708Z,13.27
2022-11-10T05:13:43.725Z,8.53
2022-11-10T05:16:10.791Z,10.50
2022-11-10T05:18:37.377Z,12.93
2022-11-10T05:21:04.033Z,16.03
2022-11-10T05:23:39.706Z,8.90
2022-11-10T05:26:06.600Z,12.20
2022-11-10T05:28:33.843Z,11.27
2022-11-10T05:31:00.536Z,14.90
2022-11-10T05:33:27.105Z,26.77
2022-11-10T05:35:53.666Z,19.83
2022-11-10T05:38:20.137Z,13.57
2022-11-10T05:40:46.717Z,11.93
2022-11-10T05:43:13.523Z,9.87
2022-11-10T05:45:40.161Z,12.33
2022-11-10T05:48:06.841Z,7.87
2022-11-10T05:50:33.384Z,10.90
2022-11-10T05:52:59.955Z,16.40
2022-11-10T05:55:28.471Z,9.93
2022-11-10T05:57:56.171Z,13.87
2022-11-10T06:00:25.366Z,14.50
2022-11-10T06:03:06.596Z,13.50
2022-11-10T06:05:35.244Z,15.27
2022-11-10T06:08:03.287Z,14.17
2022-11-10T06:10:30.143Z,15.50
2022-11-10T06:12:56.946Z,14.63
2022-11-10T06:15:23.641Z,14.53
2022-11-10T06:17:50.655Z,12.53
2022-11-10T06:20:17.649Z,18.87
2022-11-10T06:22:45.655Z,12.77
2022-11-10T06:25:12.225Z,15.97
2022-11-10T06:27:43.241Z,11.00
2022-11-10T06:30:10.593Z,14.83
2022-11-10T06:32:37.066Z,8.80
2022-11-10T06:35:03.727Z,9.53
2022-11-10T06:37:30.503Z,9.10
2022-11-10T06:39:56.958Z,12.30
2022-11-10T06:42:23.502Z,11.17
2022-11-10T06:44:50.038Z,8.53
2022-11-10T06:47:16.845Z,15.73
2022-11-10T06:49:43.342Z,17.57
2022-11-10T06:52:09.874Z,13.67
2022-11-10T06:54:36.310Z,14.80
2022-11-10T06:57:02.826Z,12.57
2022-11-10T06:59:29.369Z,14.87
2022-11-10T07:01:55.951Z,16.70
2022-11-10T07:04:22.538Z,17.40
2022-11-10T07:06:49.055Z,11.93
2022-11-10T07:09:15.634Z,14.40
2022-11-10T07:11:42.495Z,13.33
2022-11-10T07:14:09.546Z,11.57
2022-11-10T07:16:36.445Z,13.10
2022-11-10T07:19:02.967Z,13.67
2022-11-10T07:21:29.602Z,17.00
2022-11-10T07:23:56.147Z,15.00
2022-11-10T07:26:22.625Z,11.37
2022-11-10T07:28:49.063Z,11.93
2022-11-10T07:31:15.606Z,16.77
2022-11-10T07:33:44.253Z,12.70
2022-11-10T07:36:10.754Z,12.37
2022-11-10T07:38:37.234Z,13.23
2022-11-10T07:41:03.733Z,22.93
2022-11-10T07:43:30.237Z,19.20
2022-11-10T07:45:57.102Z,15.03
2022-11-10T07:48:23.676Z,12.37
2022-11-10T07:50:50.672Z,12.73
2022-11-10T07:53:19.878Z,9.90
2022-11-10T07:55:47.096Z,15.67
2022-11-10T07:58:16.041Z,22.60
2022-11-10T08:00:43.114Z,14.63
2022-11-10T08:03:12.654Z,10.37
2022-11-10T08:05:39.781Z,15.53
2022-11-10T08:08:06.921Z,12.30
2022-11-10T08:10:34.639Z,27.23
2022-11-10T08:13:03.328Z,12.43
2022-11-10T08:15:31.239Z,14.13
2022-11-10T08:18:05.507Z,15.30
2022-11-10T08:20:32.275Z,16.93
2022-11-10T08:23:00.596Z,24.33
2022-11-10T08:25:34.469Z,13.83
2022-11-10T08:28:12.879Z,20.53
2022-11-10T08:30:40.865Z,19.97
2022-11-10T08:33:08.923Z,19.20
2022-11-10T08:35:38.611Z,14.93
2022-11-10T08:38:09.540Z,16.57
2022-11-10T08:40:36.934Z,11.53
2022-11-10T08:43:04.184Z,16.33
2022-11-10T08:45:30.970Z,13.90
2022-11-10T08:48:02.381Z,16.53
2022-11-10T08:50:29.512Z,11.80
2022-11-10T08:52:56.014Z,7.63
2022-11-10T08:55:22.731Z,21.00
2022-11-10T08:57:49.276Z,13.43
2022-11-10T09:00:16.909Z,11.10
2022-11-10T09:02:43.475Z,11.17
2022-11-10T09:05:10.415Z,16.37
2022-11-10T09:07:47.156Z,15.03
2022-11-10T09:10:14.375Z,27.03
2022-11-10T09:12:42.052Z,12.80
2022-11-10T09:15:10.357Z,9.83
2022-11-10T09:17:38.516Z,11.40
2022-11-10T09:20:06.291Z,12.73
2022-11-10T09:22:35.395Z,11.33
2022-11-10T09:25:02.274Z,19.00
2022-11-10T09:27:28.762Z,18.00
2022-11-10T09:29:55.322Z,14.53
2022-11-10T09:32:21.786Z,15.33
2022-11-10T09:34:52.690Z,16.57
2022-11-10T09:37:19.774Z,12.53
2022-11-10T09:39:46.542Z,13.33
2022-11-10T09:42:27.506Z,23.20
2022-11-10T09:45:12.960Z,10.53
2022-11-10T09:47:57.497Z,19.63
2022-11-10T09:50:38.738Z,16.60
2022-11-10T09:53:06.220Z,13.47
2022-11-10T09:56:02.926Z,21.13
2022-11-10T09:58:39.712Z,13.37
2022-11-10T10:01:15.606Z,15.53
2022-11-10T10:03:47.595Z,34.83
2022-11-10T10:06:15.467Z,25.03
2022-11-10T10:09:12.695Z,27.87
2022-11-10T10:12:00.907Z,31.00
2022-11-10T10:14:46.672Z,15.97
2022-11-10T10:17:39.755Z,12.60
2022-11-10T10:20:10.574Z,12.80
2022-11-10T10:22:51.713Z,13.93
2022-11-10T10:25:23.880Z,22.50
2022-11-10T10:27:58.225Z,32.10
2022-11-10T10:30:24.741Z,43.77
2022-11-10T10:32:57.511Z,36.53
2022-11-10T10:35:24.084Z,32.93
2022-11-10T10:37:51.597Z,29.73
2022-11-10T10:40:20.947Z,24.53
2022-11-10T10:42:47.772Z,17.60
2022-11-10T10:45:25.371Z,12.57
2022-11-10T10:47:54.240Z,14.27
2022-11-10T10:50:35.153Z,14.27
2022-11-10T10:53:21.544Z,16.30
2022-11-10T10:55:59.924Z,12.73
2022-11-10T10:58:32.586Z,20.00
2022-11-10T11:01:04.166Z,11.40
2022-11-10T11:03:44.417Z,12.03
2022-11-10T11:06:19.699Z,13.60
2022-11-10T11:09:16.773Z,9.63
2022-11-10T11:11:45.257Z,16.90
2022-11-10T11:14:15.745Z,9.53
2022-11-10T11:16:56.556Z,15.30
2022-11-10T11:19:29.454Z,6.67
2022-11-10T11:22:14.078Z,7.60
2022-11-10T11:24:46.363Z,13.63
2022-11-10T11:27:12.781Z,12.03
2022-11-10T11:29:46.123Z,10.60
2022-11-10T11:32:39.580Z,11.80
2022-11-10T11:35:16.203Z,14.07
2022-11-10T11:37:58.105Z,10.23
2022-11-10T11:40:32.416Z,9.03
2022-11-10T11:43:35.405Z,6.30
2022-11-10T11:46:26.640Z,12.87
2022-11-10T11:49:08.486Z,13.40
2022-11-10T11:51:49.007Z,9.33
2022-11-10T11:54:19.445Z,15.00
2022-11-10T11:56:47.937Z,11.73
2022-11-10T11:59:55.903Z,19.63
2022-11-10T12:02:59.811Z,15.07
2022-11-10T12:05:36.916Z,12.63
2022-11-10T12:08:22.248Z,12.30
2022-11-10T12:10:49.034Z,9.40
2022-11-10T12:13:19.096Z,14.30
2022-11-10T12:15:51.796Z,13.40
2022-11-10T12:18:27.495Z,17.37
2022-11-10T12:21:15.724Z,11.53
2022-11-10T12:23:58.788Z,9.47
2022-11-10T12:26:47.018Z,10.53
2022-11-10T12:29:31.815Z,13.90
2022-11-10T12:32:03.784Z,9.23
2022-11-10T12:34:37.449Z,14.13
2022-11-10T12:37:06.715Z,11.07
2022-11-10T12:39:56.919Z,14.33
2022-11-10T12:42:26.293Z,14.33
2022-11-10T12:44:56.992Z,8.23
2022-11-10T12:47:27.503Z,10.90
2022-11-10T12:50:02.308Z,9.13
2022-11-10T12:52:40.380Z,10.37
2022-11-10T12:55:07.203Z,17.90
2022-11-10T12:57:33.743Z,12.97
2022-11-10T13:00:03.997Z,14.40
2022-11-10T13:02:40.476Z,10.83
2022-11-10T13:05:24.209Z,13.57
2022-11-10T13:07:52.076Z,9.90
2022-11-10T13:10:18.581Z,21.60
2022-11-10T13:13:03.884Z,14.10
2022-11-10T13:15:39.434Z,10.77
2022-11-10T13:18:08.436Z,14.00
2022-11-10T13:20:51.228Z,13.17
2022-11-10T13:23:25.135Z,9.87
2022-11-10T13:26:00.117Z,14.47
2022-11-10T13:28:48.457Z,11.47
2022-11-10T13:31:27.225Z,15.57
2022-11-10T13:34:03.465Z,13.93
2022-11-10T13:36:41.346Z,13.50
2022-11-10T13:39:19.905Z,16.23
2022-11-10T13:41:47.969Z,17.43
2022-11-10T13:44:21.149Z,16.80
2022-11-10T13:47:08.894Z,20.97
2022-11-10T13:50:13.282Z,13.20
2022-11-10T13:52:50.801Z,9.83
2022-11-10T13:55:29.483Z,10.60
2022-11-10T13:58:00.946Z,6.30
2022-11-10T14:00:33.089Z,9.90
2022-11-10T14:03:01.413Z,12.40
2022-11-10T14:05:42.175Z,6.17
2022-11-10T14:08:13.843Z,6.17
2022-11-10T14:10:45.374Z,12.23
2022-11-10T14:13:17.002Z,9.47
2022-11-10T14:15:46.094Z,13.77
2022-11-10T14:18:41.920Z,12.93
2022-11-10T14:21:10.377Z,8.13
2022-11-10T14:23:49.162Z,4.63
2022-11-10T14:26:28.330Z,6.60
2022-11-10T14:28:54.859Z,8.47
2022-11-10T14:31:23.608Z,8.60
2022-11-10T14:33:54.675Z,6.80
2022-11-10T14:36:21.321Z,12.27
2022-11-10T14:38:47.901Z,12.10
2022-11-10T14:41:23.265Z,16.27
2022-11-10T14:44:01.313Z,10.03
2022-11-10T14:46:27.921Z,8.40
2022-11-10T14:48:59.631Z,9.17
2022-11-10T14:51:28.087Z,8.10
2022-11-10T14:53:55.399Z,11.30
2022-11-10T14:56:30.596Z,24.80
2022-11-10T14:58:59.177Z,14.07
2022-11-10T15:01:29.237Z,12.10
2022-11-10T15:03:57.006Z,11.27
2022-11-10T15:06:23.559Z,18.93
2022-11-10T15:08:53.334Z,13.63
2022-11-10T15:11:47.431Z,13.17
2022-11-10T15:14:30.970Z,18.30
2022-11-10T15:17:01.857Z,19.57
2022-11-10T15:19:30.692Z,30.77
2022-11-10T15:22:13.383Z,15.07
2022-11-10T15:24:47.616Z,15.33
2022-11-10T15:27:24.052Z,19.97
2022-11-10T15:29:51.077Z,25.40
2022-11-10T15:32:21.063Z,21.97
2022-11-10T15:34:48.237Z,21.13
2022-11-10T15:37:31.127Z,20.30
2022-11-10T15:40:31.927Z,15.20
2022-11-10T15:43:26.531Z,21.10
2022-11-10T15:45:58.784Z,19.47
2022-11-10T15:48:26.638Z,22.00
2022-11-10T15:50:55.070Z,17.53
2022-11-10T15:53:38.440Z,22.33
2022-11-10T15:56:07.210Z,21.33
2022-11-10T15:58:33.696Z,15.93
2022-11-10T16:01:01.128Z,15.57
2022-11-10T16:03:27.942Z,18.93
2022-11-10T16:05:54.442Z,18.33
2022-11-10T16:08:22.584Z,27.30
2022-11-10T16:10:52.525Z,28.87
2022-11-10T16:13:23.533Z,21.27
2022-11-10T16:15:50.367Z,15.23
2022-11-10T16:18:22.669Z,29.20
2022-11-10T16:20:50.894Z,35.10
2022-11-10T16:23:17.408Z,14.40
2022-11-10T16:25:44.471Z,20.60
2022-11-10T16:28:13.862Z,14.47
2022-11-10T16:30:42.540Z,20.80
2022-11-10T16:33:16.467Z,25.03
2022-11-10T16:35:43.505Z,17.13
2022-11-10T16:38:16.401Z,21.50
2022-11-10T16:40:42.866Z,20.07
2022-11-10T16:43:16.001Z,24.50
2022-11-10T16:45:43.830Z,21.40
2022-11-10T16:48:14.343Z,42.20
2022-11-10T16:50:41.213Z,35.00
2022-11-10T16:53:14.809Z,60.70
2022-11-10T16:55:41.637Z,42.97
2022-11-10T16:58:08.066Z,38.03
2022-11-10T17:00:35.326Z,31.70
2022-11-10T17:03:06.344Z,55.20
2022-11-10T17:05:34.370Z,46.10
2022-11-10T17:08:01.132Z,26.83
2022-11-10T17:10:27.696Z,16.10
2022-11-10T17:12:54.190Z,25.50
2022-11-10T17:15:20.926Z,26.10
2022-11-10T17:17:50.823Z,15.97
2022-11-10T17:20:20.623Z,19.33
2022-11-10T17:22:47.301Z,20.77
2022-11-10T17:25:22.422Z,25.10
2022-11-10T17:27:48.878Z,24.67
2022-11-10T17:30:15.762Z,20.57
2022-11-10T17:33:04.189Z,22.67
2022-11-10T17:35:28.740Z,43.17
2022-11-10T17:37:57.460Z,29.20
2022-11-10T17:40:28.455Z,36.13
2022-11-10T17:42:54.905Z,31.73
2022-11-10T17:45:25.276Z,27.67
2022-11-10T17:47:52.393Z,26.47
2022-11-10T17:50:21.306Z,20.80
2022-11-10T17:52:48.288Z,31.97
2022-11-10T17:55:20.510Z,18.13
2022-11-10T17:57:47.349Z,21.90
2022-11-10T18:00:15.856Z,35.63
2022-11-10T18:02:49.960Z,17.63
2022-11-10T18:05:20.795Z,23.00
2022-11-10T18:07:51.329Z,24.87
2022-11-10T18:10:18.291Z,17.77
2022-11-10T18:12:45.152Z,19.50
2022-11-10T18:15:16.126Z,16.80
2022-11-10T18:17:42.859Z,19.27
2022-11-10T18:20:10.499Z,16.60
2022-11-10T18:22:37.080Z,17.93
2022-11-10T18:25:03.877Z,18.50
2022-11-10T18:27:31.332Z,30.13
2022-11-10T18:29:57.789Z,24.23
2022-11-10T18:32:24.572Z,20.43
2022-11-10T18:34:51.079Z,17.53
2022-11-10T18:37:17.787Z,25.80
2022-11-10T18:39:45.217Z,32.13
2022-11-10T18:42:11.851Z,14.67
2022-11-10T18:44:38.662Z,22.00
2022-11-10T18:47:06.582Z,28.43
2022-11-10T18:49:33.673Z,18.60
2022-11-10T18:52:00.316Z,17.83
2022-11-10T18:54:27.357Z,23.60
2022-11-10T18:56:53.966Z,25.30
2022-11-10T18:59:20.487Z,20.00
2022-11-10T19:01:47.791Z,22.13
2022-11-10T19:04:14.477Z,18.80
2022-11-10T19:06:41.391Z,20.13
2022-11-10T19:09:08.374Z,21.87
2022-11-10T19:11:35.160Z,26.70
2022-11-10T19:14:02.378Z,27.20
2022-11-10T19:16:30.023Z,24.53
2022-11-10T19:18:57.150Z,13.07
2022-11-10T19:21:27.733Z,19.23
2022-11-10T19:23:58.134Z,30.03
2022-11-10T19:26:26.464Z,42.67
2022-11-10T19:28:55.418Z,19.40
2022-11-10T19:31:23.692Z,26.60
2022-11-10T19:33:52.395Z,21.60
2022-11-10T19:36:26.783Z,20.43
2022-11-10T19:38:54.776Z,20.50
2022-11-10T19:41:23.742Z,27.27
2022-11-10T19:43:50.539Z,45.00
2022-11-10T19:46:19.982Z,28.67
2022-11-10T19:48:46.574Z,26.83
2022-11-10T19:51:14.630Z,30.10
2022-11-10T19:53:42.142Z,20.20
2022-11-10T19:56:26.320Z,27.80
2022-11-10T19:58:55.517Z,17.83
2022-11-10T20:01:22.246Z,30.73
2022-11-10T20:03:48.772Z,22.40
2022-11-10T20:06:18.391Z,20.80
2022-11-10T20:08:45.022Z,16.63
2022-11-10T20:11:20.911Z,28.90
2022-11-10T20:13:54.951Z,18.87
2022-11-10T20:16:22.353Z,23.33
2022-11-10T20:18:48.956Z,45.83
2022-11-10T20:21:17.795Z,23.80
2022-11-10T20:23:44.976Z,19.57
2022-11-10T20:26:16.993Z,22.53
2022-11-10T20:28:44.272Z,32.30
2022-11-10T20:31:16.693Z,27.33
2022-11-10T20:33:43.798Z,30.63
2022-11-10T20:36:19.011Z,35.83
2022-11-10T20:38:48.256Z,29.57
2022-11-10T20:41:17.568Z,22.20
2022-11-10T20:43:44.301Z,28.77
2022-11-10T20:46:40.191Z,34.10
2022-11-10T20:49:06.681Z,27.97
2022-11-10T20:51:33.413Z,36.00
2022-11-10T20:54:00.586Z,24.70
2022-11-10T20:56:29.932Z,32.10
2022-11-10T20:58:57.812Z,30.93
2022-11-10T21:01:25.036Z,23.53
2022-11-10T21:03:52.328Z,26.77
2022-11-10T21:06:18.975Z,24.17
2022-11-10T21:08:45.848Z,27.83
2022-11-10T21:11:32.802Z,20.70
2022-11-10T21:13:59.831Z,30.63
2022-11-10T21:16:26.541Z,30.47
2022-11-10T21:18:55.690Z,36.67
2022-11-10T21:21:26.332Z,26.40
2022-11-10T21:23:57.207Z,34.57
2022-11-10T21:26:24.302Z,41.90
2022-11-10T21:28:50.960Z,29.87
2022-11-10T21:31:18.429Z,20.90
2022-11-10T21:33:45.311Z,18.20
2022-11-10T21:36:11.967Z,15.13
2022-11-10T21:38:38.540Z,20.27
2022-11-10T21:41:05.193Z,22.00
2022-11-10T21:43:31.952Z,31.03
2022-11-10T21:46:01.622Z,37.53
2022-11-10T21:48:28.286Z,23.57
2022-11-10T21:51:00.761Z,12.67
2022-11-10T21:53:27.728Z,9.70
2022-11-10T21:56:03.421Z,13.43
2022-11-10T21:58:30.958Z,12.80
2022-11-10T22:01:02.140Z,8.23
2022-11-10T22:03:29.400Z,8.73
2022-11-10T22:05:56.020Z,20.53
2022-11-10T22:08:22.451Z,12.40
2022-11-10T22:11:07.620Z,11.80
2022-11-10T22:13:52.393Z,9.37
2022-11-10T22:16:47.511Z,10.47
2022-11-10T22:19:14.133Z,9.03
2022-11-10T22:21:40.703Z,9.67
2022-11-10T22:24:26.221Z,11.90
2022-11-10T22:27:01.354Z,11.57
2022-11-10T22:29:31.672Z,12.47
2022-11-10T22:32:02.147Z,17.13
2022-11-10T22:34:30.259Z,11.00
2022-11-10T22:36:57.234Z,14.93
2022-11-10T22:39:43.783Z,17.97
2022-11-10T22:42:30.794Z,11.60
2022-11-10T22:44:57.281Z,18.50
2022-11-10T22:47:23.987Z,9.53
2022-11-10T22:49:50.688Z,10.93
2022-11-10T22:52:17.199Z,9.43
2022-11-10T22:54:43.631Z,7.30
2022-11-10T22:57:10.093Z,13.63
2022-11-10T22:59:36.714Z,7.70
2022-11-10T23:02:03.308Z,12.30
2022-11-10T23:04:29.984Z,11.77
2022-11-10T23:06:56.549Z,8.93
2022-11-10T23:09:23.067Z,8.13
2022-11-10T23:11:49.536Z,9.50
2022-11-10T23:14:15.992Z,9.07
2022-11-10T23:16:42.413Z,7.40
2022-11-10T23:19:10.412Z,13.20
2022-11-10T23:21:36.900Z,7.30
2022-11-10T23:24:03.639Z,8.67
2022-11-10T23:26:30.314Z,3.53
2022-11-10T23:28:56.873Z,5.80
2022-11-10T23:31:25.632Z,8.93
2022-11-10T23:33:53.958Z,3.73
2022-11-10T23:36:21.644Z,4.10
2022-11-10T23:38:48.778Z,11.23
2022-11-10T23:41:17.604Z,10.23
2022-11-10T23:43:44.467Z,10.80
2022-11-10T23:46:11.790Z,8.70
2022-11-10T23:48:39.469Z,5.07
2022-11-10T23:51:07.276Z,4.30
2022-11-10T23:53:33.718Z,8.93
2022-11-10T23:56:02.354Z,7.13
2022-11-10T23:58:29.321Z,5.30
